createdAt,value
2023-01-23T00:02:16.548Z,4.90
2023-01-23T00:08:11.393Z,4.80
2023-01-23T00:14:05.035Z,4.70
2023-01-23T00:19:59.972Z,4.80
2023-01-23T00:25:54.808Z,4.80
2023-01-23T00:31:48.360Z,4.60
2023-01-23T00:37:43.040Z,4.60
2023-01-23T00:43:39.816Z,4.60
2023-01-23T00:49:33.316Z,4.60
2023-01-23T00:55:26.903Z,4.60
2023-01-23T01:01:23.112Z,4.70
2023-01-23T01:07:16.653Z,4.60
2023-01-23T01:13:11.947Z,4.60
2023-01-23T01:19:06.969Z,4.60
2023-01-23T01:25:01.591Z,4.60
2023-01-23T01:30:55.238Z,4.70
2023-01-23T01:36:50.138Z,4.70
2023-01-23T01:42:45.002Z,4.70
2023-01-23T01:48:43.808Z,4.60
2023-01-23T01:54:43.131Z,4.70
2023-01-23T02:00:37.452Z,4.40
2023-01-23T02:06:31.042Z,4.60
2023-01-23T02:12:28.559Z,4.70
2023-01-23T02:18:23.071Z,4.60
2023-01-23T02:24:23.956Z,4.60
2023-01-23T02:30:21.925Z,4.50
2023-01-23T02:36:18.241Z,4.40
2023-01-23T02:42:12.462Z,4.60
2023-01-23T02:48:15.324Z,4.60
2023-01-23T02:54:09.096Z,4.60
2023-01-23T03:00:17.496Z,4.70
2023-01-23T03:06:12.945Z,4.70
2023-01-23T03:12:06.667Z,4.60
2023-01-23T03:18:00.151Z,4.60
2023-01-23T03:23:55.011Z,4.60
2023-01-23T03:30:05.832Z,4.70
2023-01-23T03:35:59.393Z,4.80
2023-01-23T03:41:55.125Z,4.70
2023-01-23T03:47:50.484Z,4.60
2023-01-23T03:53:44.056Z,4.70
2023-01-23T03:59:39.607Z,4.50
2023-01-23T04:05:33.135Z,4.30
2023-01-23T04:11:28.389Z,4.20
2023-01-23T04:17:23.286Z,4.10
2023-01-23T04:23:18.559Z,4.20
2023-01-23T04:29:12.043Z,4.20
2023-01-23T04:35:08.183Z,4.30
2023-01-23T04:41:05.029Z,4.50
2023-01-23T04:47:03.131Z,4.40
2023-01-23T04:52:58.727Z,4.50
2023-01-23T04:58:53.785Z,4.30
2023-01-23T05:04:49.122Z,4.40
2023-01-23T05:10:44.506Z,4.40
2023-01-23T05:16:40.416Z,4.30
2023-01-23T05:22:57.035Z,4.50
2023-01-23T05:29:05.543Z,4.60
2023-01-23T05:35:02.629Z,4.40
2023-01-23T05:40:57.622Z,4.40
2023-01-23T05:47:11.070Z,4.40
2023-01-23T05:53:04.929Z,4.20
2023-01-23T05:58:59.689Z,4.10
2023-01-23T06:05:21.288Z,4.20
2023-01-23T06:11:36.487Z,4.50
2023-01-23T06:17:32.629Z,4.10
2023-01-23T06:23:27.799Z,4.50
2023-01-23T06:29:20.923Z,4.40
2023-01-23T06:35:14.183Z,4.50
2023-01-23T06:41:11.474Z,4.50
2023-01-23T06:47:08.143Z,4.50
2023-01-23T06:53:02.364Z,4.50
2023-01-23T06:58:57.627Z,4.60
2023-01-23T07:04:56.211Z,4.50
2023-01-23T07:10:50.946Z,4.50
2023-01-23T07:16:45.411Z,4.40
2023-01-23T07:22:38.950Z,4.60
2023-01-23T07:28:32.479Z,4.50
2023-01-23T07:34:26.905Z,4.50
2023-01-23T07:40:20.752Z,4.60
2023-01-23T07:46:14.409Z,4.50
2023-01-23T07:52:08.954Z,4.60
2023-01-23T07:58:02.447Z,4.60
2023-01-23T08:03:55.763Z,4.60
2023-01-23T08:09:50.274Z,4.60
2023-01-23T08:15:43.724Z,4.60
2023-01-23T08:21:38.242Z,4.60
2023-01-23T08:27:32.594Z,4.60
2023-01-23T08:33:25.594Z,4.60
2023-01-23T08:39:19.958Z,4.60
2023-01-23T08:45:15.104Z,4.70
2023-01-23T08:51:10.293Z,4.70
2023-01-23T08:57:03.311Z,4.70
2023-01-23T09:03:00.616Z,4.70
2023-01-23T09:08:54.153Z,4.70
2023-01-23T09:14:47.174Z,4.70
2023-01-23T09:20:42.091Z,4.80
2023-01-23T09:26:35.180Z,4.80
2023-01-23T09:32:29.213Z,4.80
2023-01-23T09:38:23.568Z,4.90
2023-01-23T09:44:20.994Z,4.80
2023-01-23T09:50:21.740Z,4.80
2023-01-23T09:56:30.494Z,4.90
2023-01-23T10:02:26.926Z,5.00
2023-01-23T10:08:29.084Z,5.00
2023-01-23T10:14:40.639Z,5.00
2023-01-23T10:20:52.971Z,5.00
2023-01-23T10:26:48.064Z,5.10
2023-01-23T10:32:49.874Z,5.00
2023-01-23T10:38:49.827Z,5.00
2023-01-23T10:44:42.797Z,5.00
2023-01-23T10:50:39.884Z,5.10
2023-01-23T10:56:33.865Z,5.10
2023-01-23T11:02:32.756Z,5.20
2023-01-23T11:08:30.891Z,5.20
2023-01-23T11:14:25.722Z,5.20
2023-01-23T11:20:28.714Z,5.20
2023-01-23T11:26:37.127Z,5.20
2023-01-23T11:32:33.690Z,5.30
2023-01-23T11:38:31.295Z,5.40
2023-01-23T11:44:28.194Z,5.30
2023-01-23T11:50:49.905Z,5.30
2023-01-23T11:57:03.269Z,5.30
2023-01-23T12:03:36.031Z,5.40
2023-01-23T12:09:40.185Z,5.30
2023-01-23T12:15:41.398Z,5.30
2023-01-23T12:21:44.169Z,5.40
2023-01-23T12:27:43.787Z,5.40
2023-01-23T12:34:00.583Z,5.40
2023-01-23T12:40:04.060Z,5.40
2023-01-23T12:46:05.768Z,5.40
2023-01-23T12:52:03.577Z,5.40
2023-01-23T12:58:08.351Z,5.40
2023-01-23T13:04:14.709Z,5.30
2023-01-23T13:10:48.965Z,5.30
2023-01-23T13:16:49.432Z,5.20
2023-01-23T13:22:42.957Z,5.30
2023-01-23T13:28:45.993Z,5.30
2023-01-23T13:34:41.649Z,5.40
2023-01-23T13:40:34.769Z,5.40
2023-01-23T14:24:04.031Z,5.40
2023-01-23T14:29:59.879Z,5.40
2023-01-23T14:35:55.724Z,5.40
2023-01-23T14:41:50.901Z,5.30
2023-01-23T14:47:56.192Z,5.40
2023-01-23T14:53:56.511Z,5.40
2023-01-23T14:59:52.045Z,5.30
2023-01-23T15:05:59.789Z,5.30
2023-01-23T15:11:53.312Z,5.30
2023-01-23T15:17:48.350Z,5.30
2023-01-23T15:24:02.110Z,5.30
2023-01-23T15:30:29.635Z,5.30
2023-01-23T15:36:28.091Z,5.30
2023-01-23T15:42:31.433Z,5.30
2023-01-23T15:48:24.917Z,5.20
2023-01-23T15:54:24.562Z,5.20
2023-01-23T16:00:21.673Z,5.20
2023-01-23T16:06:19.298Z,5.10
2023-01-23T16:12:17.767Z,5.20
2023-01-23T16:18:12.719Z,5.20
2023-01-23T16:24:06.974Z,5.20
2023-01-23T16:29:59.993Z,5.20
2023-01-23T16:35:55.987Z,5.30
2023-01-23T16:41:49.519Z,5.20
2023-01-23T16:47:43.034Z,5.20
2023-01-23T16:53:42.153Z,5.10
2023-01-23T16:59:38.896Z,5.20
2023-01-23T17:05:32.707Z,5.10
2023-01-23T17:11:34.067Z,5.10
2023-01-23T17:17:31.460Z,5.10
2023-01-23T17:23:26.562Z,5.20
2023-01-23T17:29:21.441Z,5.20
2023-01-23T17:35:22.922Z,5.10
2023-01-23T17:41:17.305Z,5.10
2023-01-23T17:47:13.745Z,5.20
2023-01-23T17:53:07.140Z,5.20
2023-01-23T17:59:00.582Z,5.20
2023-01-23T18:04:56.224Z,5.10
2023-01-23T18:10:53.110Z,5.00
2023-01-23T18:16:48.567Z,5.00
2023-01-23T18:22:44.075Z,5.10
2023-01-23T18:28:44.181Z,5.00
2023-01-23T18:34:44.908Z,5.00
2023-01-23T18:40:49.215Z,5.10
2023-01-23T18:46:43.074Z,5.00
2023-01-23T18:52:48.210Z,5.00
2023-01-23T18:59:09.785Z,5.00
2023-01-23T19:05:24.219Z,5.00
2023-01-23T19:11:32.721Z,5.00
2023-01-23T19:17:37.073Z,5.10
2023-01-23T19:23:38.669Z,5.10
2023-01-23T19:29:32.472Z,5.00
2023-01-23T19:35:27.291Z,5.10
2023-01-23T19:41:22.315Z,5.00
2023-01-23T19:47:15.424Z,5.10
2023-01-23T19:53:13.656Z,5.10
2023-01-23T19:59:07.682Z,5.10
2023-01-23T20:05:00.730Z,5.00
2023-01-23T20:10:55.601Z,5.00
2023-01-23T20:16:49.100Z,5.10
2023-01-23T20:22:44.011Z,5.10
2023-01-23T20:28:38.951Z,5.00
2023-01-23T20:34:34.094Z,5.00
2023-01-23T20:40:28.475Z,5.00
2023-01-23T20:46:23.408Z,5.00
2023-01-23T20:52:34.304Z,5.00
2023-01-23T20:58:46.287Z,5.00
2023-01-23T21:04:41.226Z,5.00
2023-01-23T21:10:34.734Z,5.00
2023-01-23T21:16:28.283Z,4.90
2023-01-23T21:22:23.118Z,5.00
2023-01-23T21:28:16.526Z,4.90
2023-01-23T21:34:12.362Z,4.90
2023-01-23T21:40:09.001Z,4.90
2023-01-23T21:46:03.168Z,4.90
2023-01-23T21:51:56.587Z,4.90
2023-01-23T21:57:51.595Z,5.00
2023-01-23T22:03:45.067Z,5.00
2023-01-23T22:09:38.485Z,4.90
2023-01-23T22:15:33.245Z,4.90
2023-01-23T22:21:27.017Z,4.90
2023-01-23T22:27:22.111Z,5.00
2023-01-23T22:33:17.898Z,4.90
2023-01-23T22:39:16.366Z,4.90
2023-01-23T22:45:11.017Z,4.90
2023-01-23T22:51:07.109Z,4.90
2023-01-23T22:57:00.536Z,4.90
2023-01-23T23:02:53.999Z,4.90
2023-01-23T23:08:49.562Z,4.90
2023-01-23T23:14:43.204Z,4.90
2023-01-23T23:20:36.666Z,4.80
2023-01-23T23:26:32.241Z,4.80
2023-01-23T23:32:25.835Z,4.70
2023-01-23T23:38:19.586Z,4.80
2023-01-23T23:44:14.515Z,4.80
2023-01-23T23:50:09.133Z,4.80
2023-01-23T23:56:02.734Z,4.80
